sensor_id;sensor_type;location;lat;lon;timestamp;temperature;humidity
26621;DHT22;14253;44.840;10.444;2023-09-18T00:00:17;22.20;1.00
26621;DHT22;14253;44.840;10.444;2023-09-18T00:02:43;22.20;1.00
26621;DHT22;14253;44.840;10.444;2023-09-18T00:05:09;22.10;1.00
26621;DHT22;14253;44.840;10.444;2023-09-18T00:07:35;22.10;1.00
26621;DHT22;14253;44.840;10.444;2023-09-18T00:10:01;22.00;1.00
26621;DHT22;14253;44.840;10.444;2023-09-18T00:12:27;22.00;1.00
26621;DHT22;14253;44.840;10.444;2023-09-18T00:14:52;22.00;1.00
26621;DHT22;14253;44.840;10.444;2023-09-18T00:17:18;21.90;1.00
26621;DHT22;14253;44.840;10.444;2023-09-18T00:19:44;21.90;1.00
26621;DHT22;14253;44.840;10.444;2023-09-18T00:22:11;21.90;1.00
26621;DHT22;14253;44.840;10.444;2023-09-18T00:24:37;21.80;1.00
26621;DHT22;14253;44.840;10.444;2023-09-18T00:27:03;21.80;1.00
26621;DHT22;14253;44.840;10.444;2023-09-18T00:29:29;21.80;1.00
26621;DHT22;14253;44.840;10.444;2023-09-18T00:31:55;21.80;1.00
26621;DHT22;14253;44.840;10.444;2023-09-18T00:34:21;21.80;1.00
26621;DHT22;14253;44.840;10.444;2023-09-18T00:36:47;21.70;1.00
26621;DHT22;14253;44.840;10.444;2023-09-18T00:39:13;21.70;1.00
26621;DHT22;14253;44.840;10.444;2023-09-18T00:41:40;21.70;1.00
26621;DHT22;14253;44.840;10.444;2023-09-18T00:44:06;21.70;1.00
26621;DHT22;14253;44.840;10.444;2023-09-18T00:46:33;21.70;1.00
26621;DHT22;14253;44.840;10.444;2023-09-18T00:49:01;21.70;1.00
26621;DHT22;14253;44.840;10.444;2023-09-18T00:51:28;21.70;1.00
26621;DHT22;14253;44.840;10.444;2023-09-18T00:53:54;21.70;1.00
26621;DHT22;14253;44.840;10.444;2023-09-18T00:56:20;21.80;1.00
26621;DHT22;14253;44.840;10.444;2023-09-18T00:58:46;21.80;1.00
26621;DHT22;14253;44.840;10.444;2023-09-18T01:01:15;21.80;1.00
26621;DHT22;14253;44.840;10.444;2023-09-18T01:03:44;21.80;1.00
26621;DHT22;14253;44.840;10.444;2023-09-18T01:06:10;21.80;1.00
26621;DHT22;14253;44.840;10.444;2023-09-18T01:08:36;21.80;1.00
26621;DHT22;14253;44.840;10.444;2023-09-18T01:11:08;21.80;1.00
26621;DHT22;14253;44.840;10.444;2023-09-18T01:13:41;21.90;1.00
26621;DHT22;14253;44.840;10.444;2023-09-18T01:16:17;21.80;1.00
26621;DHT22;14253;44.840;10.444;2023-09-18T01:18:51;21.80;1.00
26621;DHT22;14253;44.840;10.444;2023-09-18T01:21:20;21.80;1.00
26621;DHT22;14253;44.840;10.444;2023-09-18T01:23:47;21.80;1.00
26621;DHT22;14253;44.840;10.444;2023-09-18T01:26:14;21.80;1.00
26621;DHT22;14253;44.840;10.444;2023-09-18T01:28:40;21.80;1.00
26621;DHT22;14253;44.840;10.444;2023-09-18T01:31:06;21.70;1.00
26621;DHT22;14253;44.840;10.444;2023-09-18T01:33:34;21.60;1.00
26621;DHT22;14253;44.840;10.444;2023-09-18T01:36:03;21.60;1.00
26621;DHT22;14253;44.840;10.444;2023-09-18T01:38:31;21.60;1.00
26621;DHT22;14253;44.840;10.444;2023-09-18T01:40:57;21.70;1.00
26621;DHT22;14253;44.840;10.444;2023-09-18T01:43:25;21.60;1.00
26621;DHT22;14253;44.840;10.444;2023-09-18T01:45:51;21.70;1.00
26621;DHT22;14253;44.840;10.444;2023-09-18T01:48:17;21.70;1.00
26621;DHT22;14253;44.840;10.444;2023-09-18T01:50:43;21.70;1.00
26621;DHT22;14253;44.840;10.444;2023-09-18T01:53:09;21.70;1.00
26621;DHT22;14253;44.840;10.444;2023-09-18T01:55:35;21.70;1.00
26621;DHT22;14253;44.840;10.444;2023-09-18T01:58:02;21.60;1.00
26621;DHT22;14253;44.840;10.444;2023-09-18T02:00:28;21.60;1.00
26621;DHT22;14253;44.840;10.444;2023-09-18T02:02:54;21.70;1.00
26621;DHT22;14253;44.840;10.444;2023-09-18T02:05:20;21.70;1.00
26621;DHT22;14253;44.840;10.444;2023-09-18T02:07:46;21.60;1.00
26621;DHT22;14253;44.840;10.444;2023-09-18T02:10:12;21.60;1.00
26621;DHT22;14253;44.840;10.444;2023-09-18T02:12:39;21.60;1.00
26621;DHT22;14253;44.840;10.444;2023-09-18T02:15:06;21.60;1.00
26621;DHT22;14253;44.840;10.444;2023-09-18T02:17:32;21.60;1.00
26621;DHT22;14253;44.840;10.444;2023-09-18T02:19:58;21.60;1.00
26621;DHT22;14253;44.840;10.444;2023-09-18T02:22:32;21.60;1.00
26621;DHT22;14253;44.840;10.444;2023-09-18T02:24:58;21.60;1.00
26621;DHT22;14253;44.840;10.444;2023-09-18T02:27:24;21.60;1.00
26621;DHT22;14253;44.840;10.444;2023-09-18T02:29:50;21.60;1.00
26621;DHT22;14253;44.840;10.444;2023-09-18T02:32:19;21.60;1.00
26621;DHT22;14253;44.840;10.444;2023-09-18T02:34:45;21.50;1.00
26621;DHT22;14253;44.840;10.444;2023-09-18T02:37:11;21.60;1.00
26621;DHT22;14253;44.840;10.444;2023-09-18T02:39:37;21.60;1.00
26621;DHT22;14253;44.840;10.444;2023-09-18T02:42:03;21.60;1.00
26621;DHT22;14253;44.840;10.444;2023-09-18T02:44:29;21.60;1.00
26621;DHT22;14253;44.840;10.444;2023-09-18T02:46:56;21.60;1.00
26621;DHT22;14253;44.840;10.444;2023-09-18T02:49:22;21.50;1.00
26621;DHT22;14253;44.840;10.444;2023-09-18T02:51:48;21.50;1.00
26621;DHT22;14253;44.840;10.444;2023-09-18T02:54:16;21.50;1.00
26621;DHT22;14253;44.840;10.444;2023-09-18T02:56:42;21.40;1.00
26621;DHT22;14253;44.840;10.444;2023-09-18T02:59:08;21.30;1.00
26621;DHT22;14253;44.840;10.444;2023-09-18T03:01:34;21.40;1.00
26621;DHT22;14253;44.840;10.444;2023-09-18T03:04:00;21.30;1.00
26621;DHT22;14253;44.840;10.444;2023-09-18T03:06:27;21.30;1.00
26621;DHT22;14253;44.840;10.444;2023-09-18T03:08:53;21.30;1.00
26621;DHT22;14253;44.840;10.444;2023-09-18T03:11:19;21.30;1.00
26621;DHT22;14253;44.840;10.444;2023-09-18T03:13:46;21.30;1.00
26621;DHT22;14253;44.840;10.444;2023-09-18T03:16:13;21.30;1.00
26621;DHT22;14253;44.840;10.444;2023-09-18T03:18:40;21.30;1.00
26621;DHT22;14253;44.840;10.444;2023-09-18T03:21:06;21.30;1.00
26621;DHT22;14253;44.840;10.444;2023-09-18T03:23:32;21.30;1.00
26621;DHT22;14253;44.840;10.444;2023-09-18T03:25:59;21.10;1.00
26621;DHT22;14253;44.840;10.444;2023-09-18T03:28:26;21.10;1.00
26621;DHT22;14253;44.840;10.444;2023-09-18T03:30:52;21.00;1.00
26621;DHT22;14253;44.840;10.444;2023-09-18T03:33:21;20.90;1.00
26621;DHT22;14253;44.840;10.444;2023-09-18T03:35:48;20.80;1.00
26621;DHT22;14253;44.840;10.444;2023-09-18T03:38:18;20.70;1.00
26621;DHT22;14253;44.840;10.444;2023-09-18T03:40:45;20.70;9.80
26621;DHT22;14253;44.840;10.444;2023-09-18T03:43:11;20.70;71.60
26621;DHT22;14253;44.840;10.444;2023-09-18T03:45:41;20.70;93.80
26621;DHT22;14253;44.840;10.444;2023-09-18T03:48:08;20.70;99.90
26621;DHT22;14253;44.840;10.444;2023-09-18T03:50:34;20.70;99.90
26621;DHT22;14253;44.840;10.444;2023-09-18T03:53:00;20.70;99.90
26621;DHT22;14253;44.840;10.444;2023-09-18T03:55:26;20.70;99.90
26621;DHT22;14253;44.840;10.444;2023-09-18T03:57:52;20.70;99.90
26621;DHT22;14253;44.840;10.444;2023-09-18T04:00:18;20.70;82.80
26621;DHT22;14253;44.840;10.444;2023-09-18T04:02:44;20.70;88.30
26621;DHT22;14253;44.840;10.444;2023-09-18T04:05:11;20.70;92.60
26621;DHT22;14253;44.840;10.444;2023-09-18T04:07:37;20.70;77.60
26621;DHT22;14253;44.840;10.444;2023-09-18T04:10:04;20.80;92.00
26621;DHT22;14253;44.840;10.444;2023-09-18T04:12:31;20.80;91.00
26621;DHT22;14253;44.840;10.444;2023-09-18T04:14:57;20.80;60.50
26621;DHT22;14253;44.840;10.444;2023-09-18T04:17:23;20.70;90.50
26621;DHT22;14253;44.840;10.444;2023-09-18T04:19:50;20.70;99.90
26621;DHT22;14253;44.840;10.444;2023-09-18T04:22:16;20.80;99.90
26621;DHT22;14253;44.840;10.444;2023-09-18T04:24:42;20.80;99.90
26621;DHT22;14253;44.840;10.444;2023-09-18T04:27:09;20.80;99.90
26621;DHT22;14253;44.840;10.444;2023-09-18T04:29:35;20.80;99.90
26621;DHT22;14253;44.840;10.444;2023-09-18T04:32:02;20.80;97.10
26621;DHT22;14253;44.840;10.444;2023-09-18T04:34:30;20.80;75.10
26621;DHT22;14253;44.840;10.444;2023-09-18T04:36:55;20.80;41.10
26621;DHT22;14253;44.840;10.444;2023-09-18T04:39:21;20.70;55.10
26621;DHT22;14253;44.840;10.444;2023-09-18T04:41:48;20.60;99.90
26621;DHT22;14253;44.840;10.444;2023-09-18T04:44:14;20.60;99.90
26621;DHT22;14253;44.840;10.444;2023-09-18T04:46:41;20.60;99.90
26621;DHT22;14253;44.840;10.444;2023-09-18T04:49:09;20.60;99.90
26621;DHT22;14253;44.840;10.444;2023-09-18T04:51:37;20.70;99.90
26621;DHT22;14253;44.840;10.444;2023-09-18T04:54:05;20.70;99.90
26621;DHT22;14253;44.840;10.444;2023-09-18T04:56:31;20.70;99.90
26621;DHT22;14253;44.840;10.444;2023-09-18T04:58:57;20.70;99.90
26621;DHT22;14253;44.840;10.444;2023-09-18T05:01:24;20.80;99.90
26621;DHT22;14253;44.840;10.444;2023-09-18T05:03:52;20.80;99.90
26621;DHT22;14253;44.840;10.444;2023-09-18T05:06:18;20.80;99.90
26621;DHT22;14253;44.840;10.444;2023-09-18T05:08:45;20.90;99.90
26621;DHT22;14253;44.840;10.444;2023-09-18T05:11:11;20.90;99.90
26621;DHT22;14253;44.840;10.444;2023-09-18T05:13:37;20.90;99.90
26621;DHT22;14253;44.840;10.444;2023-09-18T05:16:03;21.00;99.90
26621;DHT22;14253;44.840;10.444;2023-09-18T05:18:29;21.00;99.90
26621;DHT22;14253;44.840;10.444;2023-09-18T05:20:55;21.00;99.90
26621;DHT22;14253;44.840;10.444;2023-09-18T05:23:21;21.00;99.90
26621;DHT22;14253;44.840;10.444;2023-09-18T05:25:47;21.00;99.90
26621;DHT22;14253;44.840;10.444;2023-09-18T05:28:13;21.00;99.90
26621;DHT22;14253;44.840;10.444;2023-09-18T05:30:39;21.00;99.90
26621;DHT22;14253;44.840;10.444;2023-09-18T05:33:05;21.00;99.90
26621;DHT22;14253;44.840;10.444;2023-09-18T05:35:40;21.00;99.90
26621;DHT22;14253;44.840;10.444;2023-09-18T05:38:08;21.00;99.90
26621;DHT22;14253;44.840;10.444;2023-09-18T05:40:36;21.10;99.90
26621;DHT22;14253;44.840;10.444;2023-09-18T05:43:02;21.10;99.90
26621;DHT22;14253;44.840;10.444;2023-09-18T05:45:28;21.20;99.90
26621;DHT22;14253;44.840;10.444;2023-09-18T05:47:56;21.10;99.90
26621;DHT22;14253;44.840;10.444;2023-09-18T05:50:30;21.10;99.90
26621;DHT22;14253;44.840;10.444;2023-09-18T05:52:58;21.20;99.90
26621;DHT22;14253;44.840;10.444;2023-09-18T05:55:33;21.20;99.90
26621;DHT22;14253;44.840;10.444;2023-09-18T05:57:59;21.30;99.90
26621;DHT22;14253;44.840;10.444;2023-09-18T06:00:26;21.40;99.90
26621;DHT22;14253;44.840;10.444;2023-09-18T06:02:52;21.50;99.90
26621;DHT22;14253;44.840;10.444;2023-09-18T06:05:18;21.70;99.90
26621;DHT22;14253;44.840;10.444;2023-09-18T06:07:50;21.90;99.90
26621;DHT22;14253;44.840;10.444;2023-09-18T06:10:16;22.20;66.10
26621;DHT22;14253;44.840;10.444;2023-09-18T06:12:44;22.30;13.60
26621;DHT22;14253;44.840;10.444;2023-09-18T06:15:10;22.30;1.00
26621;DHT22;14253;44.840;10.444;2023-09-18T06:17:38;22.30;1.00
26621;DHT22;14253;44.840;10.444;2023-09-18T06:20:05;22.20;1.00
26621;DHT22;14253;44.840;10.444;2023-09-18T06:22:33;22.20;1.00
26621;DHT22;14253;44.840;10.444;2023-09-18T06:24:59;22.00;24.00
26621;DHT22;14253;44.840;10.444;2023-09-18T06:27:25;22.00;30.10
26621;DHT22;14253;44.840;10.444;2023-09-18T06:29:51;21.90;52.20
26621;DHT22;14253;44.840;10.444;2023-09-18T06:32:17;21.90;62.90
26621;DHT22;14253;44.840;10.444;2023-09-18T06:34:43;21.90;60.30
26621;DHT22;14253;44.840;10.444;2023-09-18T06:37:10;21.90;74.00
26621;DHT22;14253;44.840;10.444;2023-09-18T06:39:39;21.90;80.50
26621;DHT22;14253;44.840;10.444;2023-09-18T06:42:05;21.90;90.80
26621;DHT22;14253;44.840;10.444;2023-09-18T06:44:31;21.90;90.30
26621;DHT22;14253;44.840;10.444;2023-09-18T06:46:57;22.00;70.00
26621;DHT22;14253;44.840;10.444;2023-09-18T06:49:25;22.00;73.90
26621;DHT22;14253;44.840;10.444;2023-09-18T06:51:51;22.00;56.50
26621;DHT22;14253;44.840;10.444;2023-09-18T06:54:18;22.00;68.40
26621;DHT22;14253;44.840;10.444;2023-09-18T06:56:45;22.00;86.30
26621;DHT22;14253;44.840;10.444;2023-09-18T06:59:11;22.00;79.10
26621;DHT22;14253;44.840;10.444;2023-09-18T07:01:40;22.10;90.90
26621;DHT22;14253;44.840;10.444;2023-09-18T07:04:08;22.10;84.20
26621;DHT22;14253;44.840;10.444;2023-09-18T07:06:38;22.10;86.90
26621;DHT22;14253;44.840;10.444;2023-09-18T07:09:04;22.20;95.10
26621;DHT22;14253;44.840;10.444;2023-09-18T07:11:33;22.30;92.50
26621;DHT22;14253;44.840;10.444;2023-09-18T07:14:00;22.30;52.00
26621;DHT22;14253;44.840;10.444;2023-09-18T07:16:26;22.40;41.50
26621;DHT22;14253;44.840;10.444;2023-09-18T07:18:52;22.60;71.90
26621;DHT22;14253;44.840;10.444;2023-09-18T07:21:18;22.80;14.00
26621;DHT22;14253;44.840;10.444;2023-09-18T07:23:46;22.90;1.00
26621;DHT22;14253;44.840;10.444;2023-09-18T07:26:13;23.00;1.00
26621;DHT22;14253;44.840;10.444;2023-09-18T07:28:39;22.90;1.00
26621;DHT22;14253;44.840;10.444;2023-09-18T07:31:07;22.80;1.00
26621;DHT22;14253;44.840;10.444;2023-09-18T07:33:35;22.70;2.50
26621;DHT22;14253;44.840;10.444;2023-09-18T07:36:01;22.70;1.40
26621;DHT22;14253;44.840;10.444;2023-09-18T07:38:27;22.70;11.60
26621;DHT22;14253;44.840;10.444;2023-09-18T07:40:53;22.60;32.40
26621;DHT22;14253;44.840;10.444;2023-09-18T07:43:19;22.60;63.70
26621;DHT22;14253;44.840;10.444;2023-09-18T07:45:45;22.40;96.60
26621;DHT22;14253;44.840;10.444;2023-09-18T07:48:11;22.30;99.90
26621;DHT22;14253;44.840;10.444;2023-09-18T07:50:37;22.10;99.90
26621;DHT22;14253;44.840;10.444;2023-09-18T07:53:03;21.80;99.90
26621;DHT22;14253;44.840;10.444;2023-09-18T07:55:29;21.70;99.90
26621;DHT22;14253;44.840;10.444;2023-09-18T07:57:56;21.60;99.90
26621;DHT22;14253;44.840;10.444;2023-09-18T08:00:22;21.60;99.90
26621;DHT22;14253;44.840;10.444;2023-09-18T08:02:49;21.60;99.90
26621;DHT22;14253;44.840;10.444;2023-09-18T08:05:17;21.60;99.90
26621;DHT22;14253;44.840;10.444;2023-09-18T08:07:43;21.50;99.90
26621;DHT22;14253;44.840;10.444;2023-09-18T08:10:09;21.50;99.90
26621;DHT22;14253;44.840;10.444;2023-09-18T08:12:36;21.60;99.90
26621;DHT22;14253;44.840;10.444;2023-09-18T08:15:02;21.60;99.90
26621;DHT22;14253;44.840;10.444;2023-09-18T08:17:28;21.70;99.90
26621;DHT22;14253;44.840;10.444;2023-09-18T08:19:54;21.70;99.90
26621;DHT22;14253;44.840;10.444;2023-09-18T08:22:21;21.70;99.90
26621;DHT22;14253;44.840;10.444;2023-09-18T08:24:48;21.70;99.90
26621;DHT22;14253;44.840;10.444;2023-09-18T08:27:14;21.80;99.90
26621;DHT22;14253;44.840;10.444;2023-09-18T08:29:44;21.80;99.90
26621;DHT22;14253;44.840;10.444;2023-09-18T08:32:10;21.80;99.90
26621;DHT22;14253;44.840;10.444;2023-09-18T08:34:37;21.90;99.90
26621;DHT22;14253;44.840;10.444;2023-09-18T08:37:03;21.90;99.90
26621;DHT22;14253;44.840;10.444;2023-09-18T08:39:29;21.90;99.90
26621;DHT22;14253;44.840;10.444;2023-09-18T08:42:02;21.90;99.90
26621;DHT22;14253;44.840;10.444;2023-09-18T08:44:29;22.00;99.90
26621;DHT22;14253;44.840;10.444;2023-09-18T08:46:56;22.00;99.90
26621;DHT22;14253;44.840;10.444;2023-09-18T08:49:26;22.10;99.90
26621;DHT22;14253;44.840;10.444;2023-09-18T08:51:55;22.20;99.90
26621;DHT22;14253;44.840;10.444;2023-09-18T08:54:24;22.20;99.90
26621;DHT22;14253;44.840;10.444;2023-09-18T08:56:51;22.30;99.90
26621;DHT22;14253;44.840;10.444;2023-09-18T08:59:17;22.40;99.90
26621;DHT22;14253;44.840;10.444;2023-09-18T09:01:46;22.50;99.90
26621;DHT22;14253;44.840;10.444;2023-09-18T09:04:12;22.70;99.90
26621;DHT22;14253;44.840;10.444;2023-09-18T09:06:38;22.70;99.90
26621;DHT22;14253;44.840;10.444;2023-09-18T09:09:04;22.70;99.90
26621;DHT22;14253;44.840;10.444;2023-09-18T09:11:30;22.80;99.90
26621;DHT22;14253;44.840;10.444;2023-09-18T09:16:39;23.10;99.90
26621;DHT22;14253;44.840;10.444;2023-09-18T09:19:06;23.20;99.90
26621;DHT22;14253;44.840;10.444;2023-09-18T09:21:42;23.20;99.90
26621;DHT22;14253;44.840;10.444;2023-09-18T09:24:10;23.30;99.90
26621;DHT22;14253;44.840;10.444;2023-09-18T09:26:43;23.30;99.90
26621;DHT22;14253;44.840;10.444;2023-09-18T09:29:22;23.40;99.90
26621;DHT22;14253;44.840;10.444;2023-09-18T09:31:48;23.40;99.90
26621;DHT22;14253;44.840;10.444;2023-09-18T09:34:26;23.40;99.90
26621;DHT22;14253;44.840;10.444;2023-09-18T09:36:56;23.30;99.90
26621;DHT22;14253;44.840;10.444;2023-09-18T09:39:23;23.20;99.90
26621;DHT22;14253;44.840;10.444;2023-09-18T09:41:53;23.20;99.90
26621;DHT22;14253;44.840;10.444;2023-09-18T09:44:20;23.10;99.90
26621;DHT22;14253;44.840;10.444;2023-09-18T09:46:48;23.10;99.90
26621;DHT22;14253;44.840;10.444;2023-09-18T09:49:14;23.10;99.90
26621;DHT22;14253;44.840;10.444;2023-09-18T09:51:41;23.10;99.90
26621;DHT22;14253;44.840;10.444;2023-09-18T09:54:08;23.10;99.90
26621;DHT22;14253;44.840;10.444;2023-09-18T09:56:49;23.20;99.90
26621;DHT22;14253;44.840;10.444;2023-09-18T09:59:22;23.30;99.90
26621;DHT22;14253;44.840;10.444;2023-09-18T10:01:50;23.30;99.90
26621;DHT22;14253;44.840;10.444;2023-09-18T10:04:19;23.30;99.90
26621;DHT22;14253;44.840;10.444;2023-09-18T10:06:57;23.30;99.90
26621;DHT22;14253;44.840;10.444;2023-09-18T10:09:26;23.20;99.90
26621;DHT22;14253;44.840;10.444;2023-09-18T10:11:56;23.20;99.90
26621;DHT22;14253;44.840;10.444;2023-09-18T10:14:32;23.30;99.90
26621;DHT22;14253;44.840;10.444;2023-09-18T10:17:10;23.30;99.90
26621;DHT22;14253;44.840;10.444;2023-09-18T10:19:51;23.40;99.90
26621;DHT22;14253;44.840;10.444;2023-09-18T10:22:39;23.50;67.50
26621;DHT22;14253;44.840;10.444;2023-09-18T10:27:47;23.80;40.80
26621;DHT22;14253;44.840;10.444;2023-09-18T10:30:33;23.90;12.40
26621;DHT22;14253;44.840;10.444;2023-09-18T10:33:01;24.20;1.00
26621;DHT22;14253;44.840;10.444;2023-09-18T10:35:28;24.30;1.00
26621;DHT22;14253;44.840;10.444;2023-09-18T10:37:54;24.40;1.00
26621;DHT22;14253;44.840;10.444;2023-09-18T10:40:21;24.50;1.00
26621;DHT22;14253;44.840;10.444;2023-09-18T10:42:49;24.50;1.00
26621;DHT22;14253;44.840;10.444;2023-09-18T10:45:16;24.50;1.00
26621;DHT22;14253;44.840;10.444;2023-09-18T10:47:44;24.50;1.00
26621;DHT22;14253;44.840;10.444;2023-09-18T10:50:12;24.40;1.00
26621;DHT22;14253;44.840;10.444;2023-09-18T10:52:47;24.40;1.00
26621;DHT22;14253;44.840;10.444;2023-09-18T10:55:14;24.40;1.00
26621;DHT22;14253;44.840;10.444;2023-09-18T10:57:54;24.40;1.00
26621;DHT22;14253;44.840;10.444;2023-09-18T11:00:28;24.40;1.00
26621;DHT22;14253;44.840;10.444;2023-09-18T11:03:15;24.40;1.00
26621;DHT22;14253;44.840;10.444;2023-09-18T11:05:48;24.40;1.00
26621;DHT22;14253;44.840;10.444;2023-09-18T11:08:29;24.40;1.00
26621;DHT22;14253;44.840;10.444;2023-09-18T11:11:00;24.40;1.00
26621;DHT22;14253;44.840;10.444;2023-09-18T11:13:33;24.50;1.00
26621;DHT22;14253;44.840;10.444;2023-09-18T11:21:31;24.70;1.00
26621;DHT22;14253;44.840;10.444;2023-09-18T11:24:05;24.80;1.00
26621;DHT22;14253;44.840;10.444;2023-09-18T11:26:35;24.80;1.00
26621;DHT22;14253;44.840;10.444;2023-09-18T11:29:04;24.90;1.00
26621;DHT22;14253;44.840;10.444;2023-09-18T11:31:51;24.90;1.00
26621;DHT22;14253;44.840;10.444;2023-09-18T11:34:21;25.00;1.00
26621;DHT22;14253;44.840;10.444;2023-09-18T11:36:48;24.90;1.00
26621;DHT22;14253;44.840;10.444;2023-09-18T11:42:08;24.90;1.00
26621;DHT22;14253;44.840;10.444;2023-09-18T11:44:34;25.00;1.00
26621;DHT22;14253;44.840;10.444;2023-09-18T11:47:02;25.10;1.00
26621;DHT22;14253;44.840;10.444;2023-09-18T11:49:30;24.90;1.00
26621;DHT22;14253;44.840;10.444;2023-09-18T11:52:01;24.90;1.00
26621;DHT22;14253;44.840;10.444;2023-09-18T11:54:32;24.90;1.00
26621;DHT22;14253;44.840;10.444;2023-09-18T11:57:03;24.90;1.00
26621;DHT22;14253;44.840;10.444;2023-09-18T11:59:40;24.90;1.00
26621;DHT22;14253;44.840;10.444;2023-09-18T12:02:10;24.90;1.00
26621;DHT22;14253;44.840;10.444;2023-09-18T12:04:41;24.90;1.00
26621;DHT22;14253;44.840;10.444;2023-09-18T12:07:07;24.80;1.00
26621;DHT22;14253;44.840;10.444;2023-09-18T12:09:35;24.70;1.00
26621;DHT22;14253;44.840;10.444;2023-09-18T12:12:02;24.70;1.00
26621;DHT22;14253;44.840;10.444;2023-09-18T12:14:32;24.60;1.00
26621;DHT22;14253;44.840;10.444;2023-09-18T12:17:02;24.50;1.00
26621;DHT22;14253;44.840;10.444;2023-09-18T12:19:32;24.50;1.00
26621;DHT22;14253;44.840;10.444;2023-09-18T12:22:01;24.50;1.00
26621;DHT22;14253;44.840;10.444;2023-09-18T12:24:27;24.50;1.00
26621;DHT22;14253;44.840;10.444;2023-09-18T12:26:54;24.40;1.00
26621;DHT22;14253;44.840;10.444;2023-09-18T12:29:21;24.50;1.00
26621;DHT22;14253;44.840;10.444;2023-09-18T12:31:47;24.50;1.00
26621;DHT22;14253;44.840;10.444;2023-09-18T12:34:15;24.50;1.00
26621;DHT22;14253;44.840;10.444;2023-09-18T12:36:44;24.50;1.00
26621;DHT22;14253;44.840;10.444;2023-09-18T12:39:13;24.50;1.00
26621;DHT22;14253;44.840;10.444;2023-09-18T12:41:47;24.60;1.00
26621;DHT22;14253;44.840;10.444;2023-09-18T12:44:13;24.60;1.00
26621;DHT22;14253;44.840;10.444;2023-09-18T12:46:43;24.70;1.00
26621;DHT22;14253;44.840;10.444;2023-09-18T12:51:43;24.70;1.00
26621;DHT22;14253;44.840;10.444;2023-09-18T12:54:10;24.80;1.00
26621;DHT22;14253;44.840;10.444;2023-09-18T12:56:42;24.80;1.00
26621;DHT22;14253;44.840;10.444;2023-09-18T12:59:08;24.80;1.00
26621;DHT22;14253;44.840;10.444;2023-09-18T13:01:35;24.80;1.00
26621;DHT22;14253;44.840;10.444;2023-09-18T13:04:04;24.80;1.00
26621;DHT22;14253;44.840;10.444;2023-09-18T13:06:31;24.70;1.00
26621;DHT22;14253;44.840;10.444;2023-09-18T13:09:16;24.70;1.00
26621;DHT22;14253;44.840;10.444;2023-09-18T13:11:57;24.70;1.00
26621;DHT22;14253;44.840;10.444;2023-09-18T13:14:27;24.80;1.00
26621;DHT22;14253;44.840;10.444;2023-09-18T13:16:53;24.80;1.00
26621;DHT22;14253;44.840;10.444;2023-09-18T13:19:19;24.80;1.00
26621;DHT22;14253;44.840;10.444;2023-09-18T13:21:49;25.00;99.90
26621;DHT22;14253;44.840;10.444;2023-09-18T13:24:44;25.00;99.90
26621;DHT22;14253;44.840;10.444;2023-09-18T13:27:10;25.20;99.90
26621;DHT22;14253;44.840;10.444;2023-09-18T13:29:36;25.30;99.90
26621;DHT22;14253;44.840;10.444;2023-09-18T13:32:02;25.40;99.90
26621;DHT22;14253;44.840;10.444;2023-09-18T13:34:29;25.60;99.90
26621;DHT22;14253;44.840;10.444;2023-09-18T13:36:56;25.60;99.90
26621;DHT22;14253;44.840;10.444;2023-09-18T13:39:22;25.70;99.90
26621;DHT22;14253;44.840;10.444;2023-09-18T13:41:48;25.80;99.90
26621;DHT22;14253;44.840;10.444;2023-09-18T13:44:14;25.80;99.90
26621;DHT22;14253;44.840;10.444;2023-09-18T13:46:40;25.80;99.90
26621;DHT22;14253;44.840;10.444;2023-09-18T13:49:06;25.80;99.90
26621;DHT22;14253;44.840;10.444;2023-09-18T13:51:33;25.70;99.90
26621;DHT22;14253;44.840;10.444;2023-09-18T13:53:59;25.70;99.90
26621;DHT22;14253;44.840;10.444;2023-09-18T13:56:24;25.60;99.90
26621;DHT22;14253;44.840;10.444;2023-09-18T13:58:56;25.60;99.90
26621;DHT22;14253;44.840;10.444;2023-09-18T14:01:23;25.60;99.90
26621;DHT22;14253;44.840;10.444;2023-09-18T14:03:54;25.70;99.90
26621;DHT22;14253;44.840;10.444;2023-09-18T14:06:20;25.70;99.90
26621;DHT22;14253;44.840;10.444;2023-09-18T14:08:46;25.90;99.90
26621;DHT22;14253;44.840;10.444;2023-09-18T14:22:41;26.00;99.90
26621;DHT22;14253;44.840;10.444;2023-09-18T14:25:07;27.20;99.90
26621;DHT22;14253;44.840;10.444;2023-09-18T14:27:34;27.10;99.90
26621;DHT22;14253;44.840;10.444;2023-09-18T14:30:01;27.00;99.90
26621;DHT22;14253;44.840;10.444;2023-09-18T14:32:32;26.80;99.90
26621;DHT22;14253;44.840;10.444;2023-09-18T14:34:58;26.60;99.90
26621;DHT22;14253;44.840;10.444;2023-09-18T14:37:27;26.40;99.90
26621;DHT22;14253;44.840;10.444;2023-09-18T14:39:53;26.30;99.90
26621;DHT22;14253;44.840;10.444;2023-09-18T14:42:19;26.10;99.90
26621;DHT22;14253;44.840;10.444;2023-09-18T14:44:45;26.00;99.90
26621;DHT22;14253;44.840;10.444;2023-09-18T14:47:11;25.90;99.90
26621;DHT22;14253;44.840;10.444;2023-09-18T14:49:38;25.80;99.90
26621;DHT22;14253;44.840;10.444;2023-09-18T14:52:08;25.80;99.90
26621;DHT22;14253;44.840;10.444;2023-09-18T14:54:34;25.80;99.90
26621;DHT22;14253;44.840;10.444;2023-09-18T14:56:59;25.70;99.90
26621;DHT22;14253;44.840;10.444;2023-09-18T14:59:27;25.70;99.90
26621;DHT22;14253;44.840;10.444;2023-09-18T15:01:59;25.60;99.90
26621;DHT22;14253;44.840;10.444;2023-09-18T15:04:25;25.70;99.90
26621;DHT22;14253;44.840;10.444;2023-09-18T15:06:51;25.80;99.90
26621;DHT22;14253;44.840;10.444;2023-09-18T15:09:16;25.70;99.90
26621;DHT22;14253;44.840;10.444;2023-09-18T15:11:43;25.70;99.90
26621;DHT22;14253;44.840;10.444;2023-09-18T15:14:09;25.60;99.90
26621;DHT22;14253;44.840;10.444;2023-09-18T15:16:35;25.60;99.90
26621;DHT22;14253;44.840;10.444;2023-09-18T15:19:01;25.50;99.90
26621;DHT22;14253;44.840;10.444;2023-09-18T15:21:30;25.40;99.90
26621;DHT22;14253;44.840;10.444;2023-09-18T15:23:56;25.30;99.90
26621;DHT22;14253;44.840;10.444;2023-09-18T15:26:23;25.20;99.90
26621;DHT22;14253;44.840;10.444;2023-09-18T15:28:49;25.20;99.90
26621;DHT22;14253;44.840;10.444;2023-09-18T15:31:15;25.30;99.90
26621;DHT22;14253;44.840;10.444;2023-09-18T15:33:41;25.50;99.90
26621;DHT22;14253;44.840;10.444;2023-09-18T15:36:07;25.60;99.90
26621;DHT22;14253;44.840;10.444;2023-09-18T15:38:33;25.60;99.90
26621;DHT22;14253;44.840;10.444;2023-09-18T15:40:59;25.60;99.90
26621;DHT22;14253;44.840;10.444;2023-09-18T15:43:26;25.60;99.90
26621;DHT22;14253;44.840;10.444;2023-09-18T15:45:53;25.70;99.90
26621;DHT22;14253;44.840;10.444;2023-09-18T15:48:19;26.00;99.90
26621;DHT22;14253;44.840;10.444;2023-09-18T15:50:45;26.30;99.90
26621;DHT22;14253;44.840;10.444;2023-09-18T15:53:11;26.50;99.90